sensor_id;sensor_type;location;lat;lon;timestamp;P1;durP1;ratioP1;P2;durP2;ratioP2
46751;SDS011;32497;48.936;9.270;2023-05-10T00:02:18;4.37;;;0.90;;
46751;SDS011;32497;48.936;9.270;2023-05-10T00:07:19;0.90;;;0.50;;
46751;SDS011;32497;48.936;9.270;2023-05-10T00:12:21;1.00;;;0.80;;
46751;SDS011;32497;48.936;9.270;2023-05-10T00:17:23;1.13;;;0.87;;
46751;SDS011;32497;48.936;9.270;2023-05-10T00:22:24;1.37;;;0.80;;
46751;SDS011;32497;48.936;9.270;2023-05-10T00:27:26;1.20;;;1.00;;
46751;SDS011;32497;48.936;9.270;2023-05-10T00:32:27;0.57;;;0.40;;
46751;SDS011;32497;48.936;9.270;2023-05-10T00:37:29;0.97;;;0.50;;
46751;SDS011;32497;48.936;9.270;2023-05-10T00:42:32;0.47;;;0.30;;
46751;SDS011;32497;48.936;9.270;2023-05-10T00:47:33;0.43;;;0.40;;
46751;SDS011;32497;48.936;9.270;2023-05-10T00:52:36;3.23;;;0.30;;
46751;SDS011;32497;48.936;9.270;2023-05-10T00:57:39;0.37;;;0.30;;
46751;SDS011;32497;48.936;9.270;2023-05-10T01:02:40;0.40;;;0.30;;
46751;SDS011;32497;48.936;9.270;2023-05-10T01:07:42;0.50;;;0.47;;
46751;SDS011;32497;48.936;9.270;2023-05-10T01:13:09;0.50;;;0.40;;
46751;SDS011;32497;48.936;9.270;2023-05-10T01:18:11;1.17;;;0.67;;
46751;SDS011;32497;48.936;9.270;2023-05-10T01:23:33;1.83;;;0.60;;
46751;SDS011;32497;48.936;9.270;2023-05-10T01:29:01;0.80;;;0.63;;
46751;SDS011;32497;48.936;9.270;2023-05-10T01:34:20;1.00;;;0.67;;
46751;SDS011;32497;48.936;9.270;2023-05-10T01:39:27;0.90;;;0.60;;
46751;SDS011;32497;48.936;9.270;2023-05-10T01:44:33;0.80;;;0.70;;
46751;SDS011;32497;48.936;9.270;2023-05-10T01:49:41;0.90;;;0.77;;
46751;SDS011;32497;48.936;9.270;2023-05-10T01:54:48;1.30;;;0.80;;
46751;SDS011;32497;48.936;9.270;2023-05-10T01:59:53;1.30;;;0.83;;
46751;SDS011;32497;48.936;9.270;2023-05-10T02:04:58;1.23;;;0.90;;
46751;SDS011;32497;48.936;9.270;2023-05-10T02:10:01;2.43;;;1.33;;
46751;SDS011;32497;48.936;9.270;2023-05-10T02:15:04;1.43;;;1.20;;
46751;SDS011;32497;48.936;9.270;2023-05-10T02:20:09;1.60;;;1.20;;
46751;SDS011;32497;48.936;9.270;2023-05-10T02:25:11;1.80;;;1.20;;
46751;SDS011;32497;48.936;9.270;2023-05-10T02:30:14;1.20;;;0.77;;
46751;SDS011;32497;48.936;9.270;2023-05-10T02:35:17;1.50;;;1.00;;
46751;SDS011;32497;48.936;9.270;2023-05-10T02:40:19;1.40;;;1.10;;
46751;SDS011;32497;48.936;9.270;2023-05-10T02:45:23;1.63;;;1.20;;
46751;SDS011;32497;48.936;9.270;2023-05-10T02:50:29;1.37;;;1.07;;
46751;SDS011;32497;48.936;9.270;2023-05-10T02:55:34;1.83;;;1.27;;
46751;SDS011;32497;48.936;9.270;2023-05-10T03:00:38;1.53;;;1.00;;
46751;SDS011;32497;48.936;9.270;2023-05-10T03:05:40;1.93;;;0.83;;
46751;SDS011;32497;48.936;9.270;2023-05-10T03:10:45;3.10;;;1.27;;
46751;SDS011;32497;48.936;9.270;2023-05-10T03:16:10;1.47;;;1.13;;
46751;SDS011;32497;48.936;9.270;2023-05-10T03:21:16;4.57;;;1.27;;
46751;SDS011;32497;48.936;9.270;2023-05-10T03:26:23;1.63;;;1.20;;
46751;SDS011;32497;48.936;9.270;2023-05-10T03:31:31;1.90;;;1.40;;
46751;SDS011;32497;48.936;9.270;2023-05-10T03:36:35;3.63;;;1.40;;
46751;SDS011;32497;48.936;9.270;2023-05-10T03:41:36;2.10;;;1.50;;
46751;SDS011;32497;48.936;9.270;2023-05-10T03:46:37;1.67;;;1.37;;
46751;SDS011;32497;48.936;9.270;2023-05-10T03:51:40;2.23;;;1.33;;
46751;SDS011;32497;48.936;9.270;2023-05-10T03:56:41;2.80;;;1.70;;
46751;SDS011;32497;48.936;9.270;2023-05-10T04:01:43;2.80;;;1.70;;
46751;SDS011;32497;48.936;9.270;2023-05-10T04:06:45;2.80;;;1.63;;
46751;SDS011;32497;48.936;9.270;2023-05-10T04:11:46;3.33;;;1.87;;
46751;SDS011;32497;48.936;9.270;2023-05-10T04:16:47;3.20;;;1.67;;
46751;SDS011;32497;48.936;9.270;2023-05-10T04:21:50;2.73;;;1.97;;
46751;SDS011;32497;48.936;9.270;2023-05-10T04:26:51;2.20;;;1.90;;
46751;SDS011;32497;48.936;9.270;2023-05-10T04:31:52;3.00;;;2.10;;
46751;SDS011;32497;48.936;9.270;2023-05-10T04:36:54;4.10;;;2.30;;
46751;SDS011;32497;48.936;9.270;2023-05-10T04:41:56;3.60;;;1.93;;
46751;SDS011;32497;48.936;9.270;2023-05-10T04:46:57;2.27;;;1.83;;
46751;SDS011;32497;48.936;9.270;2023-05-10T04:51:59;4.37;;;1.80;;
46751;SDS011;32497;48.936;9.270;2023-05-10T04:57:00;2.93;;;2.00;;
46751;SDS011;32497;48.936;9.270;2023-05-10T05:02:01;4.17;;;2.10;;
46751;SDS011;32497;48.936;9.270;2023-05-10T05:07:04;2.67;;;1.80;;
46751;SDS011;32497;48.936;9.270;2023-05-10T05:12:05;2.53;;;1.90;;
46751;SDS011;32497;48.936;9.270;2023-05-10T05:17:06;3.20;;;1.73;;
46751;SDS011;32497;48.936;9.270;2023-05-10T05:22:08;2.27;;;1.60;;
46751;SDS011;32497;48.936;9.270;2023-05-10T05:27:10;3.20;;;1.90;;
46751;SDS011;32497;48.936;9.270;2023-05-10T05:32:11;2.55;;;1.70;;
46751;SDS011;32497;48.936;9.270;2023-05-10T05:37:14;2.50;;;1.90;;
46751;SDS011;32497;48.936;9.270;2023-05-10T05:42:15;3.33;;;2.05;;
46751;SDS011;32497;48.936;9.270;2023-05-10T05:47:16;3.83;;;2.22;;
46751;SDS011;32497;48.936;9.270;2023-05-10T05:52:19;2.88;;;2.28;;
46751;SDS011;32497;48.936;9.270;2023-05-10T05:57:20;2.70;;;2.03;;
46751;SDS011;32497;48.936;9.270;2023-05-10T06:02:21;2.80;;;2.22;;
46751;SDS011;32497;48.936;9.270;2023-05-10T06:07:23;3.05;;;2.28;;
46751;SDS011;32497;48.936;9.270;2023-05-10T06:12:24;3.80;;;2.60;;
46751;SDS011;32497;48.936;9.270;2023-05-10T06:17:25;2.60;;;2.13;;
46751;SDS011;32497;48.936;9.270;2023-05-10T06:22:28;3.10;;;2.30;;
46751;SDS011;32497;48.936;9.270;2023-05-10T06:27:29;2.83;;;2.10;;
46751;SDS011;32497;48.936;9.270;2023-05-10T06:32:30;3.05;;;2.15;;
46751;SDS011;32497;48.936;9.270;2023-05-10T06:37:32;2.88;;;1.80;;
46751;SDS011;32497;48.936;9.270;2023-05-10T06:42:34;3.88;;;2.10;;
46751;SDS011;32497;48.936;9.270;2023-05-10T06:47:35;2.67;;;1.90;;
46751;SDS011;32497;48.936;9.270;2023-05-10T06:52:38;3.42;;;2.15;;
46751;SDS011;32497;48.936;9.270;2023-05-10T06:57:39;2.42;;;1.85;;
46751;SDS011;32497;48.936;9.270;2023-05-10T07:02:40;4.13;;;1.55;;
46751;SDS011;32497;48.936;9.270;2023-05-10T07:07:43;2.45;;;1.75;;
46751;SDS011;32497;48.936;9.270;2023-05-10T07:12:44;4.82;;;2.00;;
46751;SDS011;32497;48.936;9.270;2023-05-10T07:17:45;1.80;;;1.40;;
46751;SDS011;32497;48.936;9.270;2023-05-10T07:22:47;3.63;;;1.50;;
46751;SDS011;32497;48.936;9.270;2023-05-10T07:27:48;1.23;;;1.00;;
46751;SDS011;32497;48.936;9.270;2023-05-10T07:32:50;1.80;;;1.20;;
46751;SDS011;32497;48.936;9.270;2023-05-10T07:37:52;1.35;;;1.10;;
46751;SDS011;32497;48.936;9.270;2023-05-10T07:42:57;1.02;;;0.90;;
46751;SDS011;32497;48.936;9.270;2023-05-10T07:47:59;1.00;;;0.68;;
46751;SDS011;32497;48.936;9.270;2023-05-10T07:53:01;1.20;;;0.88;;
46751;SDS011;32497;48.936;9.270;2023-05-10T07:58:02;1.00;;;0.82;;
46751;SDS011;32497;48.936;9.270;2023-05-10T08:03:03;3.92;;;1.17;;
46751;SDS011;32497;48.936;9.270;2023-05-10T08:08:06;1.20;;;0.80;;
46751;SDS011;32497;48.936;9.270;2023-05-10T08:13:07;0.98;;;0.50;;
46751;SDS011;32497;48.936;9.270;2023-05-10T08:18:08;2.05;;;0.52;;
46751;SDS011;32497;48.936;9.270;2023-05-10T08:23:11;3.47;;;0.50;;
46751;SDS011;32497;48.936;9.270;2023-05-10T08:28:13;0.68;;;0.50;;
46751;SDS011;32497;48.936;9.270;2023-05-10T08:33:14;1.33;;;0.40;;
46751;SDS011;32497;48.936;9.270;2023-05-10T08:38:17;0.77;;;0.40;;
46751;SDS011;32497;48.936;9.270;2023-05-10T08:43:18;0.22;;;0.20;;
46751;SDS011;32497;48.936;9.270;2023-05-10T08:48:19;2.38;;;0.35;;
46751;SDS011;32497;48.936;9.270;2023-05-10T08:53:25;0.98;;;0.68;;
46751;SDS011;32497;48.936;9.270;2023-05-10T08:58:29;1.85;;;0.38;;
46751;SDS011;32497;48.936;9.270;2023-05-10T09:03:30;0.70;;;0.30;;
46751;SDS011;32497;48.936;9.270;2023-05-10T09:08:33;1.02;;;0.35;;
46751;SDS011;32497;48.936;9.270;2023-05-10T09:13:34;0.80;;;0.40;;
46751;SDS011;32497;48.936;9.270;2023-05-10T09:18:36;0.95;;;0.55;;
46751;SDS011;32497;48.936;9.270;2023-05-10T09:23:38;0.77;;;0.30;;
46751;SDS011;32497;48.936;9.270;2023-05-10T09:28:52;1.42;;;0.30;;
46751;SDS011;32497;48.936;9.270;2023-05-10T09:33:54;0.85;;;0.47;;
46751;SDS011;32497;48.936;9.270;2023-05-10T09:38:57;0.32;;;0.30;;
46751;SDS011;32497;48.936;9.270;2023-05-10T09:43:58;0.70;;;0.32;;
46751;SDS011;32497;48.936;9.270;2023-05-10T09:48:59;0.65;;;0.40;;
46751;SDS011;32497;48.936;9.270;2023-05-10T09:54:11;1.08;;;0.55;;
46751;SDS011;32497;48.936;9.270;2023-05-10T09:59:13;0.52;;;0.30;;
46751;SDS011;32497;48.936;9.270;2023-05-10T10:04:14;0.40;;;0.30;;
46751;SDS011;32497;48.936;9.270;2023-05-10T10:09:17;1.88;;;0.30;;
46751;SDS011;32497;48.936;9.270;2023-05-10T10:14:18;0.73;;;0.40;;
46751;SDS011;32497;48.936;9.270;2023-05-10T10:19:20;0.47;;;0.40;;
46751;SDS011;32497;48.936;9.270;2023-05-10T10:24:23;1.02;;;0.38;;
46751;SDS011;32497;48.936;9.270;2023-05-10T10:29:26;0.25;;;0.22;;
46751;SDS011;32497;48.936;9.270;2023-05-10T10:34:38;0.30;;;0.30;;
46751;SDS011;32497;48.936;9.270;2023-05-10T10:39:41;1.38;;;0.40;;
46751;SDS011;32497;48.936;9.270;2023-05-10T10:44:42;1.23;;;0.40;;
46751;SDS011;32497;48.936;9.270;2023-05-10T10:49:43;0.98;;;0.30;;
46751;SDS011;32497;48.936;9.270;2023-05-10T10:54:56;1.50;;;0.50;;
46751;SDS011;32497;48.936;9.270;2023-05-10T11:00:17;0.32;;;0.30;;
46751;SDS011;32497;48.936;9.270;2023-05-10T11:05:38;1.17;;;0.60;;
46751;SDS011;32497;48.936;9.270;2023-05-10T11:10:52;0.60;;;0.30;;
46751;SDS011;32497;48.936;9.270;2023-05-10T11:15:54;1.33;;;0.30;;
46751;SDS011;32497;48.936;9.270;2023-05-10T11:20:56;2.47;;;0.30;;
46751;SDS011;32497;48.936;9.270;2023-05-10T11:26:00;0.40;;;0.30;;
46751;SDS011;32497;48.936;9.270;2023-05-10T11:31:01;1.00;;;0.35;;
46751;SDS011;32497;48.936;9.270;2023-05-10T11:36:02;1.42;;;0.55;;
46751;SDS011;32497;48.936;9.270;2023-05-10T11:41:05;1.80;;;0.40;;
46751;SDS011;32497;48.936;9.270;2023-05-10T11:46:09;0.90;;;0.50;;
46751;SDS011;32497;48.936;9.270;2023-05-10T11:51:12;1.10;;;0.47;;
46751;SDS011;32497;48.936;9.270;2023-05-10T11:56:14;0.32;;;0.30;;
46751;SDS011;32497;48.936;9.270;2023-05-10T12:01:15;0.65;;;0.50;;
46751;SDS011;32497;48.936;9.270;2023-05-10T12:06:16;1.95;;;0.70;;
46751;SDS011;32497;48.936;9.270;2023-05-10T12:11:20;0.70;;;0.60;;
46751;SDS011;32497;48.936;9.270;2023-05-10T12:16:25;1.98;;;0.80;;
46751;SDS011;32497;48.936;9.270;2023-05-10T12:21:29;1.27;;;0.63;;
46751;SDS011;32497;48.936;9.270;2023-05-10T12:26:31;2.17;;;0.68;;
46751;SDS011;32497;48.936;9.270;2023-05-10T12:31:32;1.27;;;0.90;;
46751;SDS011;32497;48.936;9.270;2023-05-10T12:36:49;2.45;;;1.00;;
46751;SDS011;32497;48.936;9.270;2023-05-10T12:41:52;0.85;;;0.80;;
46751;SDS011;32497;48.936;9.270;2023-05-10T12:46:53;2.88;;;1.00;;
46751;SDS011;32497;48.936;9.270;2023-05-10T12:51:54;0.77;;;0.60;;
46751;SDS011;32497;48.936;9.270;2023-05-10T12:56:57;2.17;;;0.80;;
46751;SDS011;32497;48.936;9.270;2023-05-10T13:01:58;4.65;;;0.50;;
46751;SDS011;32497;48.936;9.270;2023-05-10T13:06:59;1.40;;;0.68;;
46751;SDS011;32497;48.936;9.270;2023-05-10T13:12:01;1.10;;;0.40;;
46751;SDS011;32497;48.936;9.270;2023-05-10T13:17:04;3.03;;;0.47;;
46751;SDS011;32497;48.936;9.270;2023-05-10T13:22:06;0.80;;;0.30;;
46751;SDS011;32497;48.936;9.270;2023-05-10T13:27:08;2.13;;;0.63;;
46751;SDS011;32497;48.936;9.270;2023-05-10T13:32:10;2.50;;;0.70;;
46751;SDS011;32497;48.936;9.270;2023-05-10T13:37:11;0.85;;;0.50;;
46751;SDS011;32497;48.936;9.270;2023-05-10T13:42:14;5.22;;;1.10;;
46751;SDS011;32497;48.936;9.270;2023-05-10T13:47:15;0.80;;;0.50;;
46751;SDS011;32497;48.936;9.270;2023-05-10T13:52:16;1.90;;;0.50;;
46751;SDS011;32497;48.936;9.270;2023-05-10T13:57:19;4.00;;;0.35;;
46751;SDS011;32497;48.936;9.270;2023-05-10T14:02:20;0.90;;;0.52;;
46751;SDS011;32497;48.936;9.270;2023-05-10T14:07:21;1.08;;;0.43;;
46751;SDS011;32497;48.936;9.270;2023-05-10T14:12:23;1.27;;;0.50;;
46751;SDS011;32497;48.936;9.270;2023-05-10T14:17:25;1.98;;;0.50;;
46751;SDS011;32497;48.936;9.270;2023-05-10T14:22:26;1.40;;;0.40;;
46751;SDS011;32497;48.936;9.270;2023-05-10T14:27:28;0.60;;;0.43;;
46751;SDS011;32497;48.936;9.270;2023-05-10T14:32:29;1.55;;;0.57;;
46751;SDS011;32497;48.936;9.270;2023-05-10T14:37:30;2.25;;;0.57;;
46751;SDS011;32497;48.936;9.270;2023-05-10T14:42:33;0.75;;;0.40;;
46751;SDS011;32497;48.936;9.270;2023-05-10T14:47:34;1.13;;;0.50;;
46751;SDS011;32497;48.936;9.270;2023-05-10T14:52:35;1.33;;;0.50;;
46751;SDS011;32497;48.936;9.270;2023-05-10T14:57:37;0.65;;;0.38;;
46751;SDS011;32497;48.936;9.270;2023-05-10T15:02:38;0.80;;;0.43;;
46751;SDS011;32497;48.936;9.270;2023-05-10T15:07:39;1.15;;;0.43;;
46751;SDS011;32497;48.936;9.270;2023-05-10T15:12:42;0.70;;;0.40;;
46751;SDS011;32497;48.936;9.270;2023-05-10T15:17:43;1.58;;;0.32;;
46751;SDS011;32497;48.936;9.270;2023-05-10T15:22:44;2.17;;;0.50;;
46751;SDS011;32497;48.936;9.270;2023-05-10T15:27:46;0.80;;;0.35;;
46751;SDS011;32497;48.936;9.270;2023-05-10T15:32:47;1.45;;;0.50;;
46751;SDS011;32497;48.936;9.270;2023-05-10T15:37:48;1.65;;;0.45;;
46751;SDS011;32497;48.936;9.270;2023-05-10T15:42:51;1.10;;;0.50;;
46751;SDS011;32497;48.936;9.270;2023-05-10T15:47:52;0.80;;;0.40;;
46751;SDS011;32497;48.936;9.270;2023-05-10T15:52:53;1.58;;;0.43;;
46751;SDS011;32497;48.936;9.270;2023-05-10T15:57:56;2.50;;;0.63;;
46751;SDS011;32497;48.936;9.270;2023-05-10T16:03:01;0.47;;;0.40;;
46751;SDS011;32497;48.936;9.270;2023-05-10T16:08:02;4.13;;;0.50;;
46751;SDS011;32497;48.936;9.270;2023-05-10T16:13:04;1.17;;;0.50;;
46751;SDS011;32497;48.936;9.270;2023-05-10T16:18:06;1.70;;;0.68;;
46751;SDS011;32497;48.936;9.270;2023-05-10T16:23:07;1.98;;;0.47;;
46751;SDS011;32497;48.936;9.270;2023-05-10T16:28:09;1.05;;;0.40;;
46751;SDS011;32497;48.936;9.270;2023-05-10T16:33:10;0.73;;;0.40;;
46751;SDS011;32497;48.936;9.270;2023-05-10T16:38:11;0.80;;;0.60;;
46751;SDS011;32497;48.936;9.270;2023-05-10T16:43:14;1.13;;;0.60;;
46751;SDS011;32497;48.936;9.270;2023-05-10T16:48:15;1.42;;;0.50;;
46751;SDS011;32497;48.936;9.270;2023-05-10T16:53:16;0.93;;;0.50;;
46751;SDS011;32497;48.936;9.270;2023-05-10T16:58:19;1.92;;;1.00;;
46751;SDS011;32497;48.936;9.270;2023-05-10T17:03:20;1.48;;;1.15;;
46751;SDS011;32497;48.936;9.270;2023-05-10T17:08:21;0.85;;;0.60;;
46751;SDS011;32497;48.936;9.270;2023-05-10T17:13:23;1.25;;;0.65;;
46751;SDS011;32497;48.936;9.270;2023-05-10T17:18:25;0.68;;;0.60;;
46751;SDS011;32497;48.936;9.270;2023-05-10T17:23:27;1.40;;;0.60;;
46751;SDS011;32497;48.936;9.270;2023-05-10T17:28:29;0.77;;;0.43;;
46751;SDS011;32497;48.936;9.270;2023-05-10T17:33:30;2.72;;;0.80;;
46751;SDS011;32497;48.936;9.270;2023-05-10T17:38:31;0.82;;;0.47;;
46751;SDS011;32497;48.936;9.270;2023-05-10T17:43:34;1.60;;;0.65;;
46751;SDS011;32497;48.936;9.270;2023-05-10T17:48:35;0.98;;;0.60;;
46751;SDS011;32497;48.936;9.270;2023-05-10T17:53:37;0.95;;;0.70;;
46751;SDS011;32497;48.936;9.270;2023-05-10T17:58:39;0.80;;;0.60;;
46751;SDS011;32497;48.936;9.270;2023-05-10T18:03:40;2.97;;;0.57;;
46751;SDS011;32497;48.936;9.270;2023-05-10T18:08:42;1.05;;;0.80;;
46751;SDS011;32497;48.936;9.270;2023-05-10T18:13:45;1.63;;;0.90;;
46751;SDS011;32497;48.936;9.270;2023-05-10T18:18:46;1.27;;;0.43;;
46751;SDS011;32497;48.936;9.270;2023-05-10T18:23:47;1.20;;;0.40;;
46751;SDS011;32497;48.936;9.270;2023-05-10T18:28:50;0.60;;;0.40;;
46751;SDS011;32497;48.936;9.270;2023-05-10T18:33:51;2.13;;;0.60;;
46751;SDS011;32497;48.936;9.270;2023-05-10T18:38:52;0.57;;;0.40;;
46751;SDS011;32497;48.936;9.270;2023-05-10T18:43:55;0.50;;;0.40;;
46751;SDS011;32497;48.936;9.270;2023-05-10T18:49:07;0.55;;;0.30;;
46751;SDS011;32497;48.936;9.270;2023-05-10T18:54:08;1.55;;;0.60;;
46751;SDS011;32497;48.936;9.270;2023-05-10T18:59:11;0.70;;;0.40;;
46751;SDS011;32497;48.936;9.270;2023-05-10T19:04:12;0.50;;;0.30;;
46751;SDS011;32497;48.936;9.270;2023-05-10T19:09:13;1.65;;;0.50;;
46751;SDS011;32497;48.936;9.270;2023-05-10T19:14:16;0.53;;;0.43;;
46751;SDS011;32497;48.936;9.270;2023-05-10T19:19:17;0.57;;;0.30;;
46751;SDS011;32497;48.936;9.270;2023-05-10T19:24:18;0.50;;;0.40;;
46751;SDS011;32497;48.936;9.270;2023-05-10T19:29:21;1.27;;;0.50;;
46751;SDS011;32497;48.936;9.270;2023-05-10T19:34:22;1.00;;;0.60;;
46751;SDS011;32497;48.936;9.270;2023-05-10T19:39:23;1.37;;;0.63;;
46751;SDS011;32497;48.936;9.270;2023-05-10T19:44:25;1.47;;;0.73;;
46751;SDS011;32497;48.936;9.270;2023-05-10T19:49:26;1.07;;;0.60;;
46751;SDS011;32497;48.936;9.270;2023-05-10T19:54:28;2.55;;;0.68;;
46751;SDS011;32497;48.936;9.270;2023-05-10T19:59:30;1.97;;;0.50;;
46751;SDS011;32497;48.936;9.270;2023-05-10T20:04:31;1.30;;;0.63;;
46751;SDS011;32497;48.936;9.270;2023-05-10T20:09:32;1.93;;;1.00;;
46751;SDS011;32497;48.936;9.270;2023-05-10T20:14:35;1.67;;;0.80;;
46751;SDS011;32497;48.936;9.270;2023-05-10T20:19:36;1.20;;;0.70;;
46751;SDS011;32497;48.936;9.270;2023-05-10T20:24:37;2.43;;;0.90;;
46751;SDS011;32497;48.936;9.270;2023-05-10T20:29:39;1.57;;;0.67;;
46751;SDS011;32497;48.936;9.270;2023-05-10T20:34:40;2.23;;;0.73;;
46751;SDS011;32497;48.936;9.270;2023-05-10T20:39:41;0.70;;;0.60;;
46751;SDS011;32497;48.936;9.270;2023-05-10T20:44:44;1.87;;;0.53;;
46751;SDS011;32497;48.936;9.270;2023-05-10T20:49:45;1.73;;;0.90;;
46751;SDS011;32497;48.936;9.270;2023-05-10T20:54:46;2.23;;;0.70;;
46751;SDS011;32497;48.936;9.270;2023-05-10T20:59:49;0.93;;;0.50;;
46751;SDS011;32497;48.936;9.270;2023-05-10T21:04:50;2.07;;;0.90;;
46751;SDS011;32497;48.936;9.270;2023-05-10T21:09:51;0.97;;;0.83;;
46751;SDS011;32497;48.936;9.270;2023-05-10T21:14:54;1.10;;;0.80;;
46751;SDS011;32497;48.936;9.270;2023-05-10T21:19:55;1.60;;;0.60;;
46751;SDS011;32497;48.936;9.270;2023-05-10T21:24:56;0.60;;;0.57;;
46751;SDS011;32497;48.936;9.270;2023-05-10T21:29:58;1.70;;;0.73;;
46751;SDS011;32497;48.936;9.270;2023-05-10T21:35:00;2.40;;;0.73;;
46751;SDS011;32497;48.936;9.270;2023-05-10T21:40:01;1.10;;;0.70;;
46751;SDS011;32497;48.936;9.270;2023-05-10T21:45:04;0.97;;;0.70;;
46751;SDS011;32497;48.936;9.270;2023-05-10T21:50:06;1.10;;;0.93;;
46751;SDS011;32497;48.936;9.270;2023-05-10T21:55:08;1.53;;;0.93;;
46751;SDS011;32497;48.936;9.270;2023-05-10T22:00:11;1.63;;;1.23;;
46751;SDS011;32497;48.936;9.270;2023-05-10T22:05:13;1.60;;;0.90;;
46751;SDS011;32497;48.936;9.270;2023-05-10T22:10:14;2.00;;;1.30;;
46751;SDS011;32497;48.936;9.270;2023-05-10T22:15:17;1.93;;;1.10;;
46751;SDS011;32497;48.936;9.270;2023-05-10T22:20:18;1.20;;;1.00;;
46751;SDS011;32497;48.936;9.270;2023-05-10T22:25:19;3.37;;;1.57;;
46751;SDS011;32497;48.936;9.270;2023-05-10T22:30:22;1.80;;;1.03;;
46751;SDS011;32497;48.936;9.270;2023-05-10T22:35:23;1.50;;;0.80;;
46751;SDS011;32497;48.936;9.270;2023-05-10T22:40:24;1.90;;;0.80;;
46751;SDS011;32497;48.936;9.270;2023-05-10T22:45:26;1.57;;;0.70;;
46751;SDS011;32497;48.936;9.270;2023-05-10T22:50:28;2.43;;;0.60;;
46751;SDS011;32497;48.936;9.270;2023-05-10T22:55:30;2.17;;;0.80;;
46751;SDS011;32497;48.936;9.270;2023-05-10T23:00:32;2.93;;;0.70;;
46751;SDS011;32497;48.936;9.270;2023-05-10T23:05:33;3.03;;;0.63;;
46751;SDS011;32497;48.936;9.270;2023-05-10T23:10:34;4.47;;;0.70;;
46751;SDS011;32497;48.936;9.270;2023-05-10T23:15:37;2.13;;;0.83;;
46751;SDS011;32497;48.936;9.270;2023-05-10T23:20:39;2.47;;;1.20;;
46751;SDS011;32497;48.936;9.270;2023-05-10T23:25:41;1.57;;;0.80;;
46751;SDS011;32497;48.936;9.270;2023-05-10T23:30:43;0.97;;;0.73;;
46751;SDS011;32497;48.936;9.270;2023-05-10T23:35:44;4.23;;;1.00;;
46751;SDS011;32497;48.936;9.270;2023-05-10T23:40:46;1.60;;;0.50;;
46751;SDS011;32497;48.936;9.270;2023-05-10T23:45:53;1.07;;;0.67;;
46751;SDS011;32497;48.936;9.270;2023-05-10T23:50:54;1.30;;;0.50;;
46751;SDS011;32497;48.936;9.270;2023-05-10T23:55:55;0.83;;;0.60;;
